»·PEaware :: ICE250 LXGB-LPMA

ICE250 :: LXGB-LPMA

FLIGHT INFORMATION

Flight Status: Arrived
Operator:
Icelandair
More flights by this operator :: More flights under this callsign
Pilot: Andrew J. (13363)
Aircraft: BOEING 757-200
(B752)
More flights by this aircraft type
Origin: LXGB Gibraltar AB
Gibraltar
Destination: LPMA Madeira
Portugal
More flights between these airports :: More routes between these airports
Route: AMPIR UT100 ORTOP LIDRO LIDR1C
File this flight plan on PilotEdge
Remarks:
Altitude:
(Current/Filed)
36,000ft
Speed:
(Current/Filed)
460kts
Departed: 14-Jul-17 05:24 PM
Arrived: 14-Jul-17 07:02 PM
Distance/Time
Traveled:
602nm/1:38
Distance/Time
To Go:
Arrived

Flight Plot

Page will automatically refresh every two minutes.

Flight plan parsing failed; only flown route is shown


Map Options




Map Legend


Flown Route
Filed Route
Departure Airport
Arrival Airport
Navaid (VOR, NDB)
Fix

Horizontal Profiles

Position Reports

Time Latitude Longitude Heading Altitude Ground
Speed
14-Jul-17 17:08 36.153980 -5.347404 270 20ft 0kts
14-Jul-17 17:09 36.153980 -5.347404 270 20ft 0kts
14-Jul-17 17:10 36.153980 -5.347404 270 20ft 0kts
14-Jul-17 17:11 36.153980 -5.347404 270 20ft 0kts
14-Jul-17 17:12 36.153980 -5.347404 270 20ft 0kts
14-Jul-17 17:13 36.153980 -5.347404 270 20ft 0kts
14-Jul-17 17:14 36.153930 -5.347175 291 20ft 2kts
14-Jul-17 17:15 36.153985 -5.346915 180 20ft 0kts
14-Jul-17 17:16 36.153985 -5.346915 180 20ft 0kts
14-Jul-17 17:17 36.153985 -5.346915 180 20ft 0kts
14-Jul-17 17:18 36.153145 -5.346815 171 20ft 14kts
14-Jul-17 17:19 36.152890 -5.346791 176 20ft 0kts
14-Jul-17 17:20 36.152890 -5.346791 176 20ft 0kts
14-Jul-17 17:21 36.152890 -5.346791 176 20ft 0kts
14-Jul-17 17:22 36.152890 -5.346791 176 20ft 0kts
14-Jul-17 17:23 36.152302 -5.346806 182 20ft 0kts
14-Jul-17 17:24 36.151271 -5.347236 253 20ft 12kts
14-Jul-17 17:25 36.151048 -5.353600 267 20ft 28kts
14-Jul-17 17:26 36.150869 -5.358589 88 20ft 9kts
14-Jul-17 17:27 36.151472 -5.322228 99 1572ft 151kts
14-Jul-17 17:28 36.116698 -5.334569 258 3336ft 246kts
14-Jul-17 17:29 36.118749 -5.423707 258 7437ft 268kts
14-Jul-17 17:30 36.095009 -5.512538 247 11116ft 290kts
14-Jul-17 17:31 36.060679 -5.611719 246 13720ft 343kts
14-Jul-17 17:32 36.027838 -5.704056 245 16292ft 366kts
14-Jul-17 17:33 35.986130 -5.820476 245 19415ft 381kts
14-Jul-17 17:34 35.939031 -5.965121 260 22534ft 401kts
14-Jul-17 17:35 35.934387 -6.104330 268 24969ft 414kts
14-Jul-17 17:36 35.932005 -6.223336 268 26943ft 420kts
14-Jul-17 17:37 35.929063 -6.368347 268 29052ft 427kts
14-Jul-17 17:38 35.925694 -6.515333 267 30860ft 435kts
14-Jul-17 17:39 35.922067 -6.662328 267 32851ft 432kts
14-Jul-17 17:40 35.937712 -6.806990 278 35008ft 427kts
14-Jul-17 17:41 35.959393 -6.949825 278 36015ft 422kts
14-Jul-17 17:42 35.981029 -7.091668 278 36034ft 422kts
14-Jul-17 17:43 36.002573 -7.233723 278 36040ft 422kts
14-Jul-17 17:44 36.020409 -7.376521 266 36040ft 419kts
14-Jul-17 17:45 35.994272 -7.515396 254 36025ft 418kts
14-Jul-17 17:46 35.962855 -7.651284 253 36019ft 418kts
14-Jul-17 17:47 35.930340 -7.789411 254 36022ft 418kts
14-Jul-17 17:48 35.898521 -7.923504 254 36021ft 418kts
14-Jul-17 17:49 35.854737 -8.106718 254 36021ft 418kts
14-Jul-17 17:50 35.827269 -8.220947 254 36020ft 418kts
14-Jul-17 17:51 35.799630 -8.335359 254 36019ft 418kts
14-Jul-17 17:52 35.766450 -8.472895 252 36019ft 424kts
14-Jul-17 17:53 35.726807 -8.634431 252 36018ft 424kts
14-Jul-17 17:54 35.698802 -8.748350 252 36024ft 424kts
14-Jul-17 17:55 35.664500 -8.886898 252 36023ft 424kts
14-Jul-17 17:56 35.630050 -9.025086 252 36022ft 424kts
14-Jul-17 17:57 35.595498 -9.163410 252 36021ft 424kts
14-Jul-17 17:58 35.560494 -9.301504 252 36019ft 424kts
14-Jul-17 17:59 35.525386 -9.439987 252 36018ft 424kts
14-Jul-17 18:00 35.490450 -9.577534 252 36017ft 425kts
14-Jul-17 18:01 35.455242 -9.715555 251 36023ft 425kts
14-Jul-17 18:02 35.419859 -9.853631 251 36022ft 425kts
14-Jul-17 18:03 35.384293 -9.991634 251 36021ft 425kts
14-Jul-17 18:04 35.348561 -10.129599 251 36020ft 425kts
14-Jul-17 18:05 35.312789 -10.266936 251 36018ft 425kts
14-Jul-17 18:06 35.276675 -10.404929 251 36017ft 426kts
14-Jul-17 18:07 35.240488 -10.542440 251 36016ft 426kts
14-Jul-17 18:08 35.204047 -10.680183 250 36022ft 426kts
14-Jul-17 18:09 35.167555 -10.817447 250 36021ft 426kts
14-Jul-17 18:10 35.130741 -10.955185 250 36020ft 426kts
14-Jul-17 18:11 35.081815 -11.137783 250 36018ft 427kts
14-Jul-17 18:12 35.044616 -11.275461 250 36017ft 427kts
14-Jul-17 18:13 35.019746 -11.366960 250 36016ft 427kts
14-Jul-17 18:14 34.982464 -11.503574 250 35987ft 427kts
14-Jul-17 18:15 34.944678 -11.641318 250 35987ft 428kts
14-Jul-17 18:16 34.906841 -11.778489 249 35992ft 428kts
14-Jul-17 18:17 34.868974 -11.915189 249 36024ft 428kts
14-Jul-17 18:18 34.831213 -12.050712 250 36023ft 423kts
14-Jul-17 18:19 34.793362 -12.186041 250 36014ft 424kts
14-Jul-17 18:20 34.755402 -12.321251 249 36155ft 428kts
14-Jul-17 18:21 34.717205 -12.456064 250 36154ft 423kts
14-Jul-17 18:22 34.678960 -12.590880 249 36153ft 423kts
14-Jul-17 18:23 34.640516 -12.725661 249 36159ft 423kts
14-Jul-17 18:24 34.601919 -12.860292 249 36158ft 423kts
14-Jul-17 18:25 34.563228 -12.994645 249 36157ft 423kts
14-Jul-17 18:26 34.511138 -13.174425 249 36156ft 424kts
14-Jul-17 18:27 34.485037 -13.264174 249 36155ft 424kts
14-Jul-17 18:28 34.445863 -13.398297 249 36153ft 424kts
14-Jul-17 18:29 34.406430 -13.532671 249 36152ft 424kts
14-Jul-17 18:30 34.360121 -13.689614 248 36158ft 424kts
14-Jul-17 18:31 34.327087 -13.801123 248 36156ft 424kts
14-Jul-17 18:32 34.287022 -13.935730 248 36155ft 425kts
14-Jul-17 18:33 34.247005 -14.069579 248 36154ft 425kts
14-Jul-17 18:34 34.206820 -14.203540 248 36155ft 425kts
14-Jul-17 18:35 34.165961 -14.338748 248 36158ft 431kts
14-Jul-17 18:36 34.124876 -14.474320 248 36153ft 431kts
14-Jul-17 18:37 34.083552 -14.610046 248 36151ft 431kts
14-Jul-17 18:38 34.044982 -14.736113 247 36155ft 431kts
14-Jul-17 18:39 34.003606 -14.870819 247 36143ft 426kts
14-Jul-17 18:40 33.962612 -15.003659 247 36148ft 426kts
14-Jul-17 18:41 33.922909 -15.131814 247 35591ft 391kts
14-Jul-17 18:42 33.887495 -15.245539 247 32993ft 399kts
14-Jul-17 18:43 33.847885 -15.372180 247 30357ft 417kts
14-Jul-17 18:44 33.807218 -15.501895 247 28046ft 412kts
14-Jul-17 18:46 33.728577 -15.750879 247 23451ft 393kts
14-Jul-17 18:47 33.690477 -15.870978 246 21329ft 381kts
14-Jul-17 18:48 33.619822 -15.982300 214 18973ft 360kts
14-Jul-17 18:49 33.551812 -16.037121 211 17394ft 351kts
14-Jul-17 18:50 33.471183 -16.099247 211 15545ft 340kts
14-Jul-17 18:51 33.392791 -16.159127 211 13758ft 331kts
14-Jul-17 18:52 33.316351 -16.217361 211 12022ft 322kts
14-Jul-17 18:53 33.241770 -16.274147 211 10415ft 314kts
14-Jul-17 18:54 33.175132 -16.324697 210 9703ft 266kts
14-Jul-17 18:55 33.113864 -16.372901 210 8420ft 264kts
14-Jul-17 18:56 33.051485 -16.420110 210 6994ft 271kts
14-Jul-17 18:57 32.987727 -16.469186 210 5555ft 277kts
14-Jul-17 18:58 32.923759 -16.518834 219 3937ft 276kts
14-Jul-17 18:59 32.869553 -16.576586 221 3040ft 243kts
14-Jul-17 19:00 32.823569 -16.628727 223 2952ft 210kts
14-Jul-17 19:01 32.784116 -16.674799 226 2012ft 192kts
14-Jul-17 19:02 32.747879 -16.714730 223 1820ft 151kts
14-Jul-17 19:03 32.719361 -16.748516 226 873ft 144kts
14-Jul-17 19:04 32.695103 -16.777731 225 204ft 82kts
14-Jul-17 19:05 32.689262 -16.784575 21 126ft 3kts
14-Jul-17 19:06 32.690914 -16.782600 43 152ft 1kts
14-Jul-17 19:07 32.693523 -16.777760 45 178ft 17kts
14-Jul-17 19:08 32.693820 -16.776282 137 168ft 0kts
14-Jul-17 19:09 32.693820 -16.776282 137 168ft 0kts
14-Jul-17 19:10 32.693820 -16.776282 137 168ft 0kts
14-Jul-17 19:11 32.693820 -16.776282 137 168ft 0kts
14-Jul-17 19:12 32.693820 -16.776282 137 168ft 0kts
14-Jul-17 19:13 32.693820 -16.776282 137 168ft 0kts
14-Jul-17 19:14 32.693820 -16.776282 137 168ft 0kts
14-Jul-17 19:15 32.690978 -16.782541 222 153ft 35kts
14-Jul-17 19:16 32.707241 -16.763289 227 288ft 135kts
14-Jul-17 19:17 32.702481 -16.769066 226 201ft 123kts
14-Jul-17 19:18 32.700820 -16.771035 225 200ft 115kts
14-Jul-17 19:19 32.693820 -16.776282 137 168ft 0kts

Navigation Log

Ident Type
Flight plan parsing failed, navigation log unavailable